Clay, Michigan
Current Conditions -  °F | °C
As of 7:55 AM on Saturday 01 Nov 2014 (Local Time) from KMTC Reporting Station
Overcast Overcast  
Wind Chill: 20°   Ceiling: 2000
Heat Index: 33°   Visibility: 10mi
Dew Point: 32°   Wind: 22mph
Humidity: 99%   Direction: 350°N
Pressure: 30.2"   Gusts: 25mph
Location:  42.6418°N, 82.5677°W
Report Text: KMTC 011155Z 35019G22KT 10SM BKN020 OVC042 00/00 A3020 RMK SLP244 60001 70031 T00040002 10015 20002 52022
Loading
Personal Weather Stations






























Interactive Weather Map
Tropical Storm Tracking
New forecast layout! Learn more

10-Day Weather Forecast

Advertisements
Track Severe Weather on mobile